Time;durP1;ratioP1;P1;durP2;ratioP2;P2;SDS_P1;SDS_P2;PMS_P1;PMS_P2;Temp;Humidity;BMP_temperature;BMP_pressure;BME280_temperature;BME280_humidity;BME280_pressure;Samples;Min_cycle;Max_cycle;Signal;HPM_P1;HPM_P2
2022/01/09 00:01:29;;;;;;;4.03;1.83;;;;;;;0.32;85.13;96562.91;4092479;28;20043;-72
2022/01/09 00:03:29;;;;;;;4.78;2.22;;;;;;;0.31;85.44;96569.50;4193220;28;20534;-72
2022/01/09 00:05:30;;;;;;;2.58;1.90;;;;;;;0.22;85.52;96564.28;4090641;28;20039;-72
2022/01/09 00:07:30;;;;;;;2.90;1.90;;;;;;;0.26;85.86;96574.09;4090217;28;20039;-72
2022/01/09 00:09:32;;;;;;;1.95;1.60;;;;;;;0.28;85.83;96571.00;4093351;28;20039;-72
2022/01/09 00:11:32;;;;;;;3.08;2.20;;;;;;;0.25;85.73;96577.19;4090158;28;20158;-72
2022/01/09 00:13:32;;;;;;;2.45;1.75;;;;;;;0.28;86.30;96560.91;4092838;28;20515;-72
2022/01/09 00:15:33;;;;;;;2.15;1.80;;;;;;;0.38;85.34;96548.69;4091868;28;20050;-72
2022/01/09 00:17:34;;;;;;;4.68;1.83;;;;;;;0.35;85.58;96549.41;4089592;28;20043;-72
2022/01/09 00:19:34;;;;;;;4.10;1.88;;;;;;;0.32;85.58;96541.16;4093539;28;20491;-72
2022/01/09 00:21:35;;;;;;;2.42;1.90;;;;;;;0.33;86.37;96535.34;4093898;28;20058;-72
2022/01/09 00:23:36;;;;;;;2.47;1.73;;;;;;;0.33;86.10;96524.47;4090974;28;20181;-72
2022/01/09 00:25:36;;;;;;;2.38;1.70;;;;;;;0.48;85.63;96520.88;4091067;28;20078;-72
2022/01/09 00:27:37;;;;;;;2.20;1.70;;;;;;;0.42;85.88;96511.47;4091730;28;20473;-72
2022/01/09 00:29:37;;;;;;;2.25;1.75;;;;;;;0.46;85.75;96506.84;4091449;28;20125;-72
2022/01/09 00:31:38;;;;;;;2.55;1.80;;;;;;;0.46;85.95;96497.91;4092510;28;20769;-72
2022/01/09 00:33:38;;;;;;;2.10;1.65;;;;;;;0.44;85.96;96494.78;4089382;28;20349;-72
2022/01/09 00:35:38;;;;;;;2.10;1.58;;;;;;;0.47;85.95;96494.81;4092497;28;20047;-72
2022/01/09 00:37:39;;;;;;;2.05;1.70;;;;;;;0.45;86.02;96491.69;4111375;28;20058;-72
2022/01/09 00:39:40;;;;;;;2.53;1.70;;;;;;;0.43;86.46;96485.03;4090578;28;20059;-72
2022/01/09 00:41:40;;;;;;;1.92;1.50;;;;;;;0.47;86.02;96492.09;4091382;28;20056;-72
2022/01/09 00:43:41;;;;;;;2.00;1.65;;;;;;;0.47;86.39;96483.16;4089092;28;20536;-72
2022/01/09 00:45:42;;;;;;;2.03;1.50;;;;;;;0.54;86.21;96484.06;4088001;28;20043;-72
2022/01/09 00:47:43;;;;;;;1.85;1.45;;;;;;;0.52;85.94;96480.94;4088903;28;20073;-72
2022/01/09 00:49:43;;;;;;;1.77;1.50;;;;;;;0.48;86.42;96477.34;4089074;28;20051;-72
2022/01/09 00:51:44;;;;;;;1.92;1.48;;;;;;;0.49;86.54;96470.75;4088613;28;20356;-72
2022/01/09 00:53:44;;;;;;;1.33;1.23;;;;;;;0.49;86.93;96473.47;4089062;28;20048;-72
2022/01/09 00:55:44;;;;;;;1.80;1.50;;;;;;;0.48;86.76;96469.19;4089335;28;20376;-72
2022/01/09 00:57:45;;;;;;;1.90;1.40;;;;;;;0.52;87.13;96463.81;4088012;28;20096;-72
2022/01/09 00:59:45;;;;;;;2.13;1.10;;;;;;;0.48;87.69;96465.69;4092217;28;20475;-72
2022/01/09 01:01:46;;;;;;;2.38;1.30;;;;;;;0.45;88.03;96458.25;4098057;28;20452;-72
2022/01/09 01:03:46;;;;;;;2.60;1.42;;;;;;;0.42;87.94;96453.53;4098212;28;20135;-72
2022/01/09 01:05:46;;;;;;;3.25;1.35;;;;;;;0.42;88.29;96459.75;4092633;28;20054;-72
2022/01/09 01:07:47;;;;;;;2.65;1.52;;;;;;;0.39;88.76;96449.59;4088740;28;20498;-72
2022/01/09 01:09:47;;;;;;;2.42;1.58;;;;;;;0.35;89.45;96443.31;4093029;28;20525;-72
2022/01/09 01:11:48;;;;;;;1.88;1.38;;;;;;;0.38;89.22;96439.06;4107325;28;20050;-72
2022/01/09 01:13:48;;;;;;;1.40;1.30;;;;;;;0.35;89.20;96440.59;4096409;28;20047;-72
2022/01/09 01:15:48;;;;;;;1.75;1.65;;;;;;;0.36;89.42;96436.72;4092390;28;20130;-72
2022/01/09 01:17:49;;;;;;;1.77;1.40;;;;;;;0.35;89.57;96431.66;4087423;28;20043;-72
2022/01/09 01:19:50;;;;;;;2.50;1.60;;;;;;;0.43;88.68;96434.13;4088650;28;20498;-72
2022/01/09 01:21:50;;;;;;;1.85;1.58;;;;;;;0.42;89.37;96429.06;4089978;28;20051;-72
2022/01/09 01:23:51;;;;;;;1.65;1.33;;;;;;;0.40;89.77;96432.13;4088154;28;20059;-72
2022/01/09 01:25:52;;;;;;;2.22;1.58;;;;;;;0.43;89.27;96433.34;4088411;28;20070;-72
2022/01/09 01:27:53;;;;;;;2.15;1.65;;;;;;;0.41;89.96;96422.03;4088702;28;20047;-72
2022/01/09 01:29:54;;;;;;;1.73;1.40;;;;;;;0.46;89.24;96425.22;4091492;28;20085;-72
2022/01/09 01:31:55;;;;;;;1.48;1.30;;;;;;;0.43;89.15;96414.31;4097696;28;20057;-72
2022/01/09 01:33:55;;;;;;;2.97;1.50;;;;;;;0.42;89.34;96424.41;4089869;28;20047;-72
2022/01/09 01:35:55;;;;;;;1.63;1.20;;;;;;;0.45;89.57;96428.31;4089348;28;20047;-72
2022/01/09 01:37:56;;;;;;;1.30;1.02;;;;;;;0.48;89.68;96411.25;4086910;28;20097;-72
2022/01/09 01:39:56;;;;;;;1.83;1.15;;;;;;;0.53;88.81;96416.41;4088320;28;20054;-72
2022/01/09 01:41:57;;;;;;;1.10;1.00;;;;;;;0.59;88.89;96395.94;4091224;28;20169;-72
2022/01/09 01:43:57;;;;;;;1.60;1.10;;;;;;;0.62;88.38;96394.41;4090456;28;20043;-72
2022/01/09 01:46:02;;;;;;;1.23;1.00;;;;;;;0.63;88.66;96387.81;4088460;28;20494;-72
2022/01/09 01:48:06;;;;;;;1.60;1.20;;;;;;;0.69;88.08;96386.34;4089683;28;20348;-72
2022/01/09 01:50:08;;;;;;;2.17;1.30;;;;;;;0.67;87.99;96370.41;4094496;28;20122;-72
2022/01/09 01:52:10;;;;;;;1.92;1.20;;;;;;;0.70;89.24;96369.66;4087297;28;20035;-72
2022/01/09 01:54:11;;;;;;;1.17;1.08;;;;;;;0.71;88.87;96359.56;4089390;28;20567;-72
2022/01/09 01:56:19;;;;;;;1.37;1.10;;;;;;;0.72;88.16;96363.84;4088603;28;20043;-72
2022/01/09 01:58:21;;;;;;;1.10;1.00;;;;;;;0.66;89.52;96363.34;4087895;28;20338;-72
2022/01/09 02:00:21;;;;;;;1.42;1.10;;;;;;;0.62;89.17;96359.81;4088597;28;20051;-72
2022/01/09 02:02:23;;;;;;;1.20;1.10;;;;;;;0.61;89.40;96360.97;4088444;28;20047;-72
2022/01/09 02:04:24;;;;;;;1.83;1.10;;;;;;;0.63;89.51;96363.31;4093118;28;20517;-72
2022/01/09 02:06:25;;;;;;;1.30;1.08;;;;;;;0.64;90.00;96359.44;4088493;28;20326;-72
2022/01/09 02:08:25;;;;;;;1.20;1.10;;;;;;;0.63;89.58;96355.16;4087195;28;20055;-72
2022/01/09 02:10:26;;;;;;;1.40;1.13;;;;;;;0.61;89.79;96354.72;4095220;28;20044;-72
2022/01/09 02:12:27;;;;;;;1.00;0.90;;;;;;;0.65;90.24;96361.00;4088566;28;20051;-72
2022/01/09 02:14:27;;;;;;;1.20;1.10;;;;;;;0.62;90.05;96353.59;4088041;28;20043;-72
2022/01/09 02:16:28;;;;;;;1.55;1.13;;;;;;;0.61;89.81;96341.91;4089215;28;20354;-72
2022/01/09 02:18:29;;;;;;;1.00;0.90;;;;;;;0.66;90.06;96338.06;4092189;28;20542;-72
2022/01/09 02:20:30;;;;;;;1.13;1.00;;;;;;;0.63;89.75;96338.81;4088281;28;20049;-72
2022/01/09 02:22:33;;;;;;;1.38;1.10;;;;;;;0.61;89.81;96322.88;4087707;28;20199;-72
2022/01/09 02:24:33;;;;;;;0.98;0.90;;;;;;;0.60;90.05;96328.69;4087958;28;20043;-72
2022/01/09 02:26:34;;;;;;;1.30;1.10;;;;;;;0.64;89.64;96322.13;4087793;28;20085;-72
2022/01/09 02:28:34;;;;;;;1.30;0.90;;;;;;;0.57;90.19;96322.00;4088833;28;20200;-72
2022/01/09 02:30:36;;;;;;;0.90;0.90;;;;;;;0.66;89.85;96316.31;4088580;28;20051;-72
2022/01/09 02:32:36;;;;;;;1.10;1.00;;;;;;;0.65;89.49;96320.19;4091279;28;20494;-72
2022/01/09 02:34:37;;;;;;;3.22;1.10;;;;;;;0.64;89.52;96313.97;4087858;28;20215;-72
2022/01/09 02:36:37;;;;;;;0.90;0.90;;;;;;;0.61;90.25;96313.91;4087757;28;20119;-72
2022/01/09 02:38:38;;;;;;;1.15;1.00;;;;;;;0.71;89.56;96310.56;4088407;28;20047;-72
2022/01/09 02:40:38;;;;;;;1.83;1.65;;;;;;;0.75;88.96;96303.25;4096210;28;20514;-72
2022/01/09 02:42:39;;;;;;;1.00;0.90;;;;;;;0.78;88.60;96306.00;4091422;28;20565;-72
2022/01/09 02:44:39;;;;;;;1.08;0.98;;;;;;;0.80;88.77;96302.91;4103361;28;20449;-72
2022/01/09 02:46:58;;;;;;;0.90;0.90;;;;;;;0.79;88.96;96304.06;4100652;28;20050;-72
2022/01/09 02:48:58;;;;;;;0.80;0.80;;;;;;;0.75;89.58;96293.16;4093680;28;20047;-72
2022/01/09 02:51:05;;;;;;;1.05;0.95;;;;;;;0.79;88.76;96298.63;4096828;28;20058;-72
2022/01/09 02:53:19;;;;;;;0.93;0.90;;;;;;;0.75;89.32;96290.44;4090524;28;20124;-72
2022/01/09 02:55:21;;;;;;;1.00;0.90;;;;;;;0.81;89.44;96285.44;4093248;28;20039;-72
2022/01/09 02:57:21;;;;;;;1.17;0.82;;;;;;;0.82;88.42;96292.44;4090169;28;20744;-72
2022/01/09 02:59:22;;;;;;;7.82;1.27;;;;;;;0.91;88.41;96276.66;4089736;28;20051;-71
2022/01/09 03:01:22;;;;;;;2.45;0.95;;;;;;;0.88;88.15;96271.91;4091127;28;20070;-72
2022/01/09 03:03:23;;;;;;;4.00;1.25;;;;;;;0.89;88.54;96275.41;4090169;28;20133;-72
2022/01/09 03:05:24;;;;;;;2.58;0.90;;;;;;;0.89;88.72;96272.69;4091475;28;20046;-72
2022/01/09 03:07:24;;;;;;;4.63;1.02;;;;;;;0.95;88.58;96252.97;4089252;28;20058;-72
2022/01/09 03:09:25;;;;;;;1.25;1.00;;;;;;;0.98;87.82;96246.75;4091756;28;20043;-72
2022/01/09 03:11:25;;;;;;;1.10;0.90;;;;;;;0.96;88.16;96246.34;4093165;28;20503;-72
2022/01/09 03:13:26;;;;;;;0.98;0.80;;;;;;;0.94;88.15;96245.16;4093404;28;20047;-72
2022/01/09 03:15:27;;;;;;;0.90;0.90;;;;;;;0.93;88.34;96236.22;4090331;28;20055;-72
2022/01/09 03:17:27;;;;;;;0.98;0.90;;;;;;;0.89;89.18;96238.09;4189006;28;20102;-72
2022/01/09 03:19:28;;;;;;;0.80;0.80;;;;;;;0.88;88.47;96233.81;4092663;28;20480;-72
2022/01/09 03:21:28;;;;;;;4.75;0.90;;;;;;;0.97;87.88;96228.06;4090028;28;20043;-72
2022/01/09 03:23:28;;;;;;;1.00;0.90;;;;;;;0.98;88.48;96224.97;4089236;28;20050;-72
2022/01/09 03:25:29;;;;;;;0.70;0.70;;;;;;;1.01;88.52;96220.75;4095511;28;20047;-72
2022/01/09 03:27:29;;;;;;;0.70;0.70;;;;;;;0.95;87.71;96203.16;4090888;28;20051;-72
2022/01/09 03:29:30;;;;;;;1.25;1.00;;;;;;;1.06;87.68;96215.75;4090686;28;20114;-72
2022/01/09 03:31:30;;;;;;;0.82;0.80;;;;;;;1.02;88.47;96220.38;4091002;28;20441;-72
2022/01/09 03:33:30;;;;;;;0.88;0.88;;;;;;;1.04;87.93;96222.72;4089154;28;20058;-72
2022/01/09 03:35:31;;;;;;;0.70;0.70;;;;;;;0.99;88.09;96218.38;4090077;28;20046;-72
2022/01/09 03:37:32;;;;;;;0.90;0.90;;;;;;;1.05;87.91;96202.50;4091537;28;20043;-72
2022/01/09 03:39:32;;;;;;;1.00;0.90;;;;;;;1.04;88.06;96201.72;4090983;28;20070;-72
2022/01/09 03:41:32;;;;;;;1.40;0.95;;;;;;;1.05;87.88;96199.78;4094445;28;20055;-72
2022/01/09 03:43:33;;;;;;;0.80;0.80;;;;;;;1.05;87.75;96191.63;4090050;28;20374;-72
2022/01/09 03:45:33;;;;;;;0.82;0.82;;;;;;;1.01;88.20;96201.69;4090490;28;20108;-72
2022/01/09 03:47:38;;;;;;;0.70;0.70;;;;;;;1.02;88.24;96208.69;4089450;28;20050;-72
2022/01/09 03:49:38;;;;;;;0.77;0.77;;;;;;;1.10;87.30;96194.78;4096527;28;20502;-72
2022/01/09 03:51:39;;;;;;;0.80;0.80;;;;;;;1.08;87.92;96190.88;4090482;28;20039;-72
2022/01/09 03:53:40;;;;;;;0.77;0.77;;;;;;;1.05;88.01;96186.16;4089983;28;20104;-72
2022/01/09 03:55:41;;;;;;;0.77;0.77;;;;;;;1.03;87.99;96180.31;4089543;28;20043;-72
2022/01/09 03:57:42;;;;;;;0.82;0.82;;;;;;;1.04;87.76;96177.22;4089272;28;20105;-72
2022/01/09 03:59:42;;;;;;;0.80;0.80;;;;;;;1.08;88.30;96163.66;4094745;28;20047;-72
2022/01/09 04:01:43;;;;;;;0.60;0.60;;;;;;;1.12;87.52;96175.34;4089850;28;20387;-72
2022/01/09 04:03:43;;;;;;;0.75;0.75;;;;;;;1.07;87.92;96165.56;4089953;28;20717;-72
2022/01/09 04:05:44;;;;;;;0.70;0.70;;;;;;;1.07;87.85;96164.78;4091043;28;20538;-71
2022/01/09 04:07:44;;;;;;;0.70;0.63;;;;;;;1.17;87.73;96166.09;4090908;28;20059;-72
2022/01/09 04:09:47;;;;;;;0.90;0.80;;;;;;;1.15;87.02;96155.53;4094785;28;20488;-72
2022/01/09 04:11:48;;;;;;;0.77;0.77;;;;;;;1.10;87.75;96167.56;4089808;28;20139;-71
2022/01/09 04:13:50;;;;;;;0.80;0.80;;;;;;;1.16;87.68;96156.31;4089315;28;20044;-72
2022/01/09 04:15:50;;;;;;;0.70;0.70;;;;;;;1.16;87.48;96157.13;4089550;28;20154;-72
2022/01/09 04:17:55;;;;;;;0.70;0.70;;;;;;;1.09;87.76;96157.84;4095631;28;20129;-72
2022/01/09 04:19:55;;;;;;;0.68;0.68;;;;;;;1.14;87.85;96162.13;4091378;28;20039;-71
2022/01/09 04:21:55;;;;;;;0.70;0.70;;;;;;;1.09;87.71;96160.56;4090171;28;20050;-72
2022/01/09 04:23:56;;;;;;;0.70;0.70;;;;;;;1.14;87.98;96164.88;4090487;28;20122;-72
2022/01/09 04:25:56;;;;;;;0.60;0.60;;;;;;;1.12;87.70;96161.75;4090128;28;20078;-72
2022/01/09 04:27:57;;;;;;;0.70;0.70;;;;;;;1.13;87.65;96164.09;4087481;28;20477;-72
2022/01/09 04:29:57;;;;;;;0.57;0.57;;;;;;;1.12;87.83;96165.25;4090128;28;20055;-72
2022/01/09 04:31:58;;;;;;;0.60;0.60;;;;;;;1.12;87.54;96151.63;4089984;28;20047;-71
2022/01/09 04:33:58;;;;;;;0.60;0.60;;;;;;;1.19;87.90;96152.88;4088958;28;20369;-72
2022/01/09 04:35:59;;;;;;;0.70;0.70;;;;;;;1.13;87.57;96153.19;4090558;28;20058;-72
2022/01/09 04:37:59;;;;;;;0.60;0.60;;;;;;;1.10;88.29;96139.53;4093686;28;20275;-71
2022/01/09 04:40:00;;;;;;;0.63;0.63;;;;;;;1.15;87.80;96132.97;4095010;28;20562;-72
2022/01/09 04:42:01;;;;;;;0.60;0.60;;;;;;;1.14;87.50;96145.81;4089182;28;20075;-72
2022/01/09 04:44:01;;;;;;;0.60;0.60;;;;;;;1.12;87.64;96135.28;4090335;28;20039;-72
2022/01/09 04:46:02;;;;;;;2.70;0.70;;;;;;;1.15;87.86;96135.69;4089067;28;20035;-72
2022/01/09 04:48:06;;;;;;;0.60;0.60;;;;;;;1.20;87.52;96127.19;4088635;28;20036;-72
2022/01/09 04:50:09;;;;;;;0.60;0.60;;;;;;;1.23;87.34;96143.56;4089775;28;20039;-72
2022/01/09 04:52:14;;;;;;;0.50;0.50;;;;;;;1.17;87.80;96139.63;4091072;28;20039;-72
2022/01/09 04:54:14;;;;;;;0.70;0.70;;;;;;;1.19;87.63;96128.34;4089129;28;20035;-71
2022/01/09 04:56:15;;;;;;;0.50;0.50;;;;;;;1.20;88.69;96138.09;4088599;28;20350;-72
2022/01/09 04:58:16;;;;;;;0.60;0.60;;;;;;;1.19;88.61;96140.03;4088999;28;20039;-72
2022/01/09 05:00:17;;;;;;;0.50;0.50;;;;;;;1.19;88.28;96137.31;4089052;28;20050;-72
2022/01/09 05:02:17;;;;;;;0.50;0.50;;;;;;;1.22;87.90;96141.22;4091196;28;20038;-72
2022/01/09 05:04:18;;;;;;;0.65;0.60;;;;;;;1.20;88.41;96138.09;4089160;28;20494;-72
2022/01/09 05:06:19;;;;;;;0.60;0.60;;;;;;;1.18;88.74;96135.75;4090998;28;20039;-72
2022/01/09 05:08:19;;;;;;;0.57;0.57;;;;;;;1.12;88.60;96138.00;4089162;28;20338;-72
2022/01/09 05:10:20;;;;;;;0.60;0.60;;;;;;;1.09;89.99;96141.50;4088315;28;20124;-72
2022/01/09 05:12:20;;;;;;;0.60;0.60;;;;;;;1.11;89.10;96139.16;4090939;28;20055;-72
2022/01/09 05:14:20;;;;;;;0.50;0.50;;;;;;;1.08;89.50;96148.09;4089352;28;20051;-71
2022/01/09 05:16:21;;;;;;;0.63;0.63;;;;;;;1.18;88.92;96140.41;4088399;28;20388;-72
2022/01/09 05:18:22;;;;;;;0.65;0.65;;;;;;;1.19;88.12;96140.03;4089120;28;20101;-72
2022/01/09 05:20:22;;;;;;;0.70;0.70;;;;;;;1.14;89.05;96148.53;4088675;28;20481;-71
2022/01/09 05:22:22;;;;;;;2.03;0.60;;;;;;;1.13;89.29;96160.56;4095024;28;20047;-72
2022/01/09 05:24:24;;;;;;;0.60;0.60;;;;;;;1.18;89.42;96157.53;4088891;28;20047;-72
2022/01/09 05:26:24;;;;;;;0.70;0.70;;;;;;;1.18;89.19;96162.97;4087931;28;20053;-72
2022/01/09 05:28:24;;;;;;;0.60;0.60;;;;;;;1.22;88.51;96152.09;4088600;28;20125;-72
2022/01/09 05:30:25;;;;;;;0.60;0.60;;;;;;;1.22;89.39;96163.78;4089865;28;20043;-71
2022/01/09 05:32:26;;;;;;;0.50;0.50;;;;;;;1.23;88.29;96176.25;4110967;28;20050;-71
2022/01/09 05:34:26;;;;;;;0.60;0.60;;;;;;;1.26;88.78;96164.63;4097336;28;20387;-71
2022/01/09 05:36:26;;;;;;;0.60;0.60;;;;;;;1.27;88.18;96168.91;4091592;28;20860;-72
2022/01/09 05:38:27;;;;;;;0.50;0.50;;;;;;;1.24;88.16;96172.41;4088537;28;20050;-72
2022/01/09 05:40:27;;;;;;;0.50;0.50;;;;;;;1.27;88.28;96168.13;4103708;28;20043;-72
2022/01/09 05:42:28;;;;;;;0.70;0.70;;;;;;;1.21;88.69;96178.56;4104951;28;20043;-72
2022/01/09 05:44:28;;;;;;;2.03;1.27;;;;;;;1.21;88.68;96177.78;4097325;28;20039;-72
2022/01/09 05:46:29;;;;;;;1.58;1.10;;;;;;;1.20;88.96;96179.72;4097753;28;20051;-72
2022/01/09 05:48:29;;;;;;;0.80;0.80;;;;;;;1.24;88.17;96180.56;4099559;28;20058;-72
2022/01/09 05:50:29;;;;;;;5.43;3.33;;;;;;;1.22;88.64;96176.63;4101837;28;20360;-72
2022/01/09 05:52:30;;;;;;;3.33;1.80;;;;;;;1.24;88.37;96183.28;4099757;28;20387;-72
2022/01/09 05:54:30;;;;;;;1.92;1.20;;;;;;;1.23;87.93;96180.91;4091315;28;20122;-72
2022/01/09 05:56:31;;;;;;;2.65;1.50;;;;;;;1.24;87.82;96182.47;4097230;28;20047;-72
2022/01/09 05:58:33;;;;;;;3.03;1.80;;;;;;;1.23;88.18;96178.97;4093836;28;20340;-72
2022/01/09 06:00:34;;;;;;;3.15;2.22;;;;;;;1.24;87.95;96177.03;4102007;28;20118;-72
2022/01/09 06:02:34;;;;;;;3.55;2.28;;;;;;;1.26;88.25;96169.28;4105236;28;20560;-72
2022/01/09 06:04:34;;;;;;;3.45;2.28;;;;;;;1.29;87.89;96195.78;4093705;28;20723;-72
2022/01/09 06:06:35;;;;;;;1.65;1.20;;;;;;;1.26;88.09;96199.25;4099315;28;20046;-72
2022/01/09 06:08:35;;;;;;;1.10;0.80;;;;;;;1.27;87.71;96187.19;4092297;28;20047;-72
2022/01/09 06:10:36;;;;;;;1.13;0.90;;;;;;;1.28;87.64;96205.88;4091961;28;20053;-72
2022/01/09 06:12:36;;;;;;;1.17;1.02;;;;;;;1.36;86.83;96195.84;4091576;28;20039;-72
2022/01/09 06:14:37;;;;;;;1.70;1.27;;;;;;;1.39;86.94;96200.53;4090515;28;20122;-72
2022/01/09 06:16:37;;;;;;;2.55;1.23;;;;;;;1.32;87.00;96203.19;4087278;28;20146;-72
2022/01/09 06:18:39;;;;;;;1.33;1.00;;;;;;;1.29;87.25;96206.66;4087967;28;20487;-72
2022/01/09 06:20:40;;;;;;;1.17;0.80;;;;;;;1.30;87.58;96206.28;4088777;28;20056;-72
2022/01/09 06:22:41;;;;;;;0.82;0.80;;;;;;;1.27;87.72;96203.53;4091103;28;20047;-72
2022/01/09 06:24:42;;;;;;;0.70;0.70;;;;;;;1.25;87.91;96203.91;4090368;28;20611;-72
2022/01/09 06:26:42;;;;;;;0.60;0.60;;;;;;;1.23;87.95;96219.03;4088981;28;20047;-72
2022/01/09 06:28:42;;;;;;;0.95;0.50;;;;;;;1.21;88.21;96218.63;4090542;28;20058;-72
2022/01/09 06:30:44;;;;;;;1.05;0.80;;;;;;;1.21;88.46;96222.16;4092793;28;20051;-72
2022/01/09 06:32:44;;;;;;;0.90;0.77;;;;;;;1.31;87.40;96224.19;4090404;28;20049;-72
2022/01/09 06:34:45;;;;;;;1.05;0.70;;;;;;;1.30;87.46;96227.31;4092406;28;20610;-72
2022/01/09 06:36:45;;;;;;;0.68;0.60;;;;;;;1.28;87.41;96229.63;4089833;28;20047;-72
2022/01/09 06:38:45;;;;;;;0.55;0.55;;;;;;;1.28;87.91;96235.84;4090307;28;20764;-72
2022/01/09 06:40:46;;;;;;;0.50;0.50;;;;;;;1.29;87.33;96236.63;4091203;28;20270;-72
2022/01/09 06:42:46;;;;;;;0.60;0.60;;;;;;;1.32;87.42;96236.66;4089996;28;20211;-72
2022/01/09 06:44:47;;;;;;;0.50;0.50;;;;;;;1.34;86.83;96234.38;4089584;28;20510;-72
2022/01/09 06:46:47;;;;;;;0.60;0.60;;;;;;;1.34;87.35;96234.38;4092611;28;20803;-72
2022/01/09 06:48:48;;;;;;;0.52;0.52;;;;;;;1.35;87.40;96229.72;4084819;28;20051;-72
2022/01/09 06:50:48;;;;;;;0.60;0.60;;;;;;;1.30;87.34;96225.34;4082541;28;20139;-72
2022/01/09 06:52:50;;;;;;;0.60;0.60;;;;;;;1.34;86.93;96234.38;4089424;28;20073;-72
2022/01/09 06:54:51;;;;;;;0.50;0.50;;;;;;;1.32;87.24;96239.38;4088025;28;20047;-72
2022/01/09 06:56:51;;;;;;;0.60;0.60;;;;;;;1.32;87.13;96239.38;4091604;28;20564;-72
2022/01/09 06:58:52;;;;;;;0.70;0.70;;;;;;;1.30;87.40;96238.19;4088830;28;20043;-72
2022/01/09 07:00:52;;;;;;;1.55;1.30;;;;;;;1.29;87.46;96236.63;4089321;28;20047;-72
2022/01/09 07:02:53;;;;;;;2.88;1.70;;;;;;;1.36;87.04;96242.97;4092081;28;20383;-72
2022/01/09 07:04:53;;;;;;;0.85;0.63;;;;;;;1.39;87.74;96241.41;4091174;28;20044;-71
2022/01/09 07:06:54;;;;;;;0.82;0.80;;;;;;;1.39;87.91;96249.59;4189076;28;20257;-72
2022/01/09 07:08:54;;;;;;;0.73;0.70;;;;;;;1.55;86.61;96258.34;4090670;28;20046;-72
2022/01/09 07:10:55;;;;;;;1.08;0.80;;;;;;;1.54;86.78;96256.00;4093362;28;20158;-72
2022/01/09 07:12:55;;;;;;;0.50;0.50;;;;;;;1.60;86.40;96260.75;4095341;28;20059;-72
2022/01/09 07:14:55;;;;;;;0.60;0.60;;;;;;;1.63;86.14;96278.28;4100610;28;20487;-72
2022/01/09 07:16:56;;;;;;;0.60;0.60;;;;;;;1.60;86.50;96270.84;4088688;28;20378;-72
2022/01/09 07:18:56;;;;;;;0.50;0.50;;;;;;;1.59;86.65;96274.75;4104430;28;20080;-72
2022/01/09 07:20:56;;;;;;;0.50;0.50;;;;;;;1.60;86.26;96277.09;4092228;28;20046;-72
2022/01/09 07:22:57;;;;;;;0.50;0.50;;;;;;;1.59;86.81;96297.34;4090347;28;20113;-72
2022/01/09 07:24:57;;;;;;;0.60;0.60;;;;;;;1.58;86.92;96290.31;4088112;28;20412;-72
2022/01/09 07:26:58;;;;;;;0.60;0.60;;;;;;;1.56;87.45;96295.34;4088772;28;20031;-72
2022/01/09 07:28:58;;;;;;;0.50;0.50;;;;;;;1.64;87.23;96296.97;4089942;28;20462;-72
2022/01/09 07:30:58;;;;;;;0.50;0.50;;;;;;;1.73;86.70;96306.81;4092111;28;20035;-72
2022/01/09 07:32:59;;;;;;;0.50;0.50;;;;;;;1.79;86.43;96310.78;4089310;28;20120;-71
2022/01/09 07:35:00;;;;;;;0.50;0.50;;;;;;;1.75;86.87;96318.94;4089384;28;20124;-72
2022/01/09 07:37:00;;;;;;;0.50;0.50;;;;;;;1.78;86.74;96320.91;4088891;28;20051;-72
2022/01/09 07:39:00;;;;;;;0.55;0.55;;;;;;;1.71;87.56;96320.03;4093849;28;20043;-72
2022/01/09 07:41:01;;;;;;;0.75;0.60;;;;;;;1.73;87.45;96329.41;4093076;28;20097;-72
2022/01/09 07:43:02;;;;;;;0.60;0.60;;;;;;;1.67;87.65;96328.19;4090312;28;20260;-72
2022/01/09 07:45:06;;;;;;;0.60;0.60;;;;;;;1.66;87.71;96332.06;4089346;28;20048;-72
2022/01/09 07:47:07;;;;;;;0.82;0.80;;;;;;;1.64;88.31;96335.16;4088588;28;20101;-72
2022/01/09 07:49:07;;;;;;;0.80;0.80;;;;;;;1.67;88.53;96342.59;4089261;28;20047;-71
2022/01/09 07:51:08;;;;;;;0.63;0.60;;;;;;;1.64;88.84;96340.59;4089948;28;20560;-72
2022/01/09 07:53:08;;;;;;;0.60;0.60;;;;;;;1.68;88.71;96348.84;4089435;28;20126;-72
2022/01/09 07:55:09;;;;;;;0.70;0.70;;;;;;;1.62;89.00;96340.19;4089162;28;20218;-71
2022/01/09 07:57:10;;;;;;;0.52;0.52;;;;;;;1.59;89.68;96345.59;4088006;28;20139;-72
2022/01/09 07:59:10;;;;;;;0.90;0.80;;;;;;;1.61;89.77;96357.69;4089544;28;20075;-72
2022/01/09 08:01:10;;;;;;;0.85;0.80;;;;;;;1.63;89.96;96352.66;4089473;28;20051;-72
2022/01/09 08:03:12;;;;;;;0.70;0.70;;;;;;;1.66;89.70;96356.59;4092172;28;20082;-72
2022/01/09 08:05:14;;;;;;;0.95;0.70;;;;;;;1.65;89.83;96357.72;4095594;28;20047;-72
2022/01/09 08:07:15;;;;;;;0.70;0.70;;;;;;;1.74;89.60;96368.34;4091155;28;20132;-72
2022/01/09 08:09:15;;;;;;;0.50;0.50;;;;;;;1.75;89.20;96373.47;4090541;28;20051;-71
2022/01/09 08:11:17;;;;;;;0.55;0.55;;;;;;;1.81;88.81;96382.06;4093991;28;20055;-71
2022/01/09 08:13:18;;;;;;;0.70;0.70;;;;;;;1.75;89.12;96384.38;4089033;28;20493;-72
2022/01/09 08:15:19;;;;;;;0.70;0.70;;;;;;;1.70;89.52;96387.41;4089824;28;20050;-71
2022/01/09 08:17:19;;;;;;;1.33;1.13;;;;;;;1.69;90.02;96400.25;4088288;28;20129;-72
2022/01/09 08:19:20;;;;;;;1.20;1.10;;;;;;;1.78;90.26;96402.69;4089300;28;20051;-72
2022/01/09 08:21:20;;;;;;;0.93;0.82;;;;;;;1.82;89.54;96403.53;4107041;28;20048;-72
2022/01/09 08:23:20;;;;;;;0.98;0.98;;;;;;;1.79;89.74;96406.22;4094398;28;20051;-72
2022/01/09 08:25:21;;;;;;;1.27;1.17;;;;;;;1.78;90.54;96419.06;4092352;28;20460;-72
2022/01/09 08:27:21;;;;;;;3.33;2.15;;;;;;;1.74;91.03;96420.16;4089750;28;20415;-71
2022/01/09 08:29:22;;;;;;;2.13;1.80;;;;;;;1.76;91.33;96426.03;4089221;28;20047;-71
2022/01/09 08:31:22;;;;;;;1.17;1.10;;;;;;;1.73;91.44;96426.75;4088683;28;20051;-72
2022/01/09 08:33:24;;;;;;;1.05;0.95;;;;;;;1.69;92.40;96430.25;4087991;28;20053;-72
2022/01/09 08:35:24;;;;;;;1.50;1.07;;;;;;;1.65;92.37;96431.34;4174353;28;20110;-72
2022/01/09 08:37:25;;;;;;;2.50;1.40;;;;;;;1.64;92.06;96433.28;4093946;28;20051;-72
2022/01/09 08:39:25;;;;;;;1.85;1.33;;;;;;;1.72;91.49;96444.28;4088099;28;20116;-72
2022/01/09 08:41:25;;;;;;;3.53;2.25;;;;;;;1.73;91.88;96460.25;4094449;28;20566;-72
2022/01/09 08:43:26;;;;;;;4.85;2.45;;;;;;;1.70;91.84;96447.38;4087550;28;20055;-72
2022/01/09 08:45:26;;;;;;;6.65;3.58;;;;;;;1.66;92.60;96460.97;4088988;28;20051;-72
2022/01/09 08:47:28;;;;;;;10.10;4.82;;;;;;;1.64;92.56;96457.81;4087981;28;20519;-72
2022/01/09 08:49:28;;;;;;;9.02;4.03;;;;;;;1.67;92.29;96467.22;4087723;28;20700;-72
2022/01/09 08:51:29;;;;;;;7.95;3.50;;;;;;;1.68;91.65;96479.69;4090285;28;20059;-72
2022/01/09 08:53:31;;;;;;;8.43;3.20;;;;;;;1.70;91.72;96491.00;4091876;28;20218;-72
2022/01/09 08:55:32;;;;;;;8.10;4.20;;;;;;;1.69;92.14;96498.41;4088859;28;20077;-72
2022/01/09 08:57:32;;;;;;;7.65;3.97;;;;;;;1.69;92.67;96505.78;4088612;28;21134;-72
2022/01/09 08:59:33;;;;;;;5.13;2.78;;;;;;;1.68;92.78;96507.72;4088661;28;20379;-72
2022/01/09 09:01:33;;;;;;;5.18;2.65;;;;;;;1.65;92.68;96499.50;4092915;28;20139;-72
2022/01/09 09:03:36;;;;;;;4.90;2.20;;;;;;;1.62;93.41;96506.47;4090702;28;20039;-72
2022/01/09 09:05:37;;;;;;;5.70;2.30;;;;;;;1.62;92.97;96517.38;4093507;28;20498;-72
2022/01/09 09:07:37;;;;;;;5.53;1.95;;;;;;;1.64;93.53;96511.53;4089153;28;20039;-72
2022/01/09 09:09:38;;;;;;;3.97;2.13;;;;;;;1.63;93.14;96518.94;4094221;28;20040;-72
2022/01/09 09:11:38;;;;;;;2.72;1.65;;;;;;;1.67;93.32;96524.47;4091295;28;20402;-72
2022/01/09 09:13:39;;;;;;;6.82;2.58;;;;;;;1.68;93.03;96537.72;4091235;28;20047;-72
2022/01/09 09:15:39;;;;;;;6.30;3.08;;;;;;;1.73;93.07;96542.06;4089521;28;20053;-72
2022/01/09 09:17:40;;;;;;;6.40;2.10;;;;;;;1.66;93.65;96550.16;4091850;28;20047;-72
2022/01/09 09:19:41;;;;;;;21.58;8.80;;;;;;;1.65;94.24;96554.00;4090061;28;20046;-72
2022/01/09 09:21:43;;;;;;;8.63;4.55;;;;;;;1.59;94.78;96552.75;4090527;28;20417;-72
2022/01/09 09:23:43;;;;;;;6.53;3.28;;;;;;;1.58;95.53;96554.72;4090704;28;20126;-71
2022/01/09 09:25:44;;;;;;;8.65;4.72;;;;;;;1.56;96.75;96562.44;4089793;28;20136;-72
2022/01/09 09:27:46;;;;;;;6.53;4.30;;;;;;;1.56;97.00;96567.09;4089745;28;20047;-72
2022/01/09 09:29:46;;;;;;;7.53;4.25;;;;;;;1.53;97.62;96563.19;4092694;28;20067;-72
2022/01/09 09:31:47;;;;;;;4.68;2.90;;;;;;;1.52;97.83;96574.47;4089813;28;20042;-72
2022/01/09 09:33:47;;;;;;;2.42;2.00;;;;;;;1.47;98.29;96572.81;4091068;28;20130;-72
2022/01/09 09:35:47;;;;;;;1.42;1.20;;;;;;;1.51;98.38;96589.25;4089874;28;20047;-72